Terminal Aerodrome Forecast
Issued by NWS Charleston, WV

Current Version | Previous Version | Text Only | Print | Product List | Glossary Off
Versions: 1 2 3 4 5 6 7 8 9 10 11 12 13 14 15 16 17 18 19 20 21 22 23

000
FTUS41 KRLX 151739 AAB
TAFCRW
TAF AMD
KCRW 151739Z 1518/1618 19008KT P6SM BKN040
     FM160600 VRB03KT 3SM -SN OVC025
     FM160900 VRB02KT 3/4SM -SN OVC015
     FM161200 VRB03KT 1SM -SN OVC007
     FM161600 27004KT 4SM -SN OVC013=

USA.gov is the U.S. government's official web portal to all federal, state and local government web resources and services.